sensor_id;sensor_type;location;lat;lon;timestamp;temperature;humidity
25963;DHT22;13760;52.588;13.406;2024-02-26T00:00:31;2.20;99.90
25963;DHT22;13760;52.588;13.406;2024-02-26T00:02:57;2.20;99.90
25963;DHT22;13760;52.588;13.406;2024-02-26T00:05:23;2.10;99.90
25963;DHT22;13760;52.588;13.406;2024-02-26T00:07:48;2.10;99.90
25963;DHT22;13760;52.588;13.406;2024-02-26T00:10:14;2.10;99.90
25963;DHT22;13760;52.588;13.406;2024-02-26T00:12:40;2.10;99.90
25963;DHT22;13760;52.588;13.406;2024-02-26T00:15:06;2.00;99.90
25963;DHT22;13760;52.588;13.406;2024-02-26T00:17:32;2.00;99.90
25963;DHT22;13760;52.588;13.406;2024-02-26T00:19:58;2.00;99.90
25963;DHT22;13760;52.588;13.406;2024-02-26T00:22:23;2.00;99.90
25963;DHT22;13760;52.588;13.406;2024-02-26T00:24:49;2.00;99.90
25963;DHT22;13760;52.588;13.406;2024-02-26T00:27:14;2.00;99.90
25963;DHT22;13760;52.588;13.406;2024-02-26T00:29:40;2.00;99.90
25963;DHT22;13760;52.588;13.406;2024-02-26T00:32:06;1.90;99.90
25963;DHT22;13760;52.588;13.406;2024-02-26T00:34:31;1.90;99.90
25963;DHT22;13760;52.588;13.406;2024-02-26T00:36:57;1.90;99.90
25963;DHT22;13760;52.588;13.406;2024-02-26T00:39:23;1.90;99.90
25963;DHT22;13760;52.588;13.406;2024-02-26T00:41:48;1.80;99.90
25963;DHT22;13760;52.588;13.406;2024-02-26T00:44:14;1.80;99.90
25963;DHT22;13760;52.588;13.406;2024-02-26T00:46:39;1.80;99.90
25963;DHT22;13760;52.588;13.406;2024-02-26T00:49:05;1.80;99.90
25963;DHT22;13760;52.588;13.406;2024-02-26T00:51:31;1.80;99.90
25963;DHT22;13760;52.588;13.406;2024-02-26T00:53:56;1.70;99.90
25963;DHT22;13760;52.588;13.406;2024-02-26T00:56:22;1.70;99.90
25963;DHT22;13760;52.588;13.406;2024-02-26T00:58:47;1.70;99.90
25963;DHT22;13760;52.588;13.406;2024-02-26T01:01:13;1.70;99.90
25963;DHT22;13760;52.588;13.406;2024-02-26T01:03:39;1.70;99.90
25963;DHT22;13760;52.588;13.406;2024-02-26T01:06:04;1.70;99.90
25963;DHT22;13760;52.588;13.406;2024-02-26T01:08:30;1.70;99.90
25963;DHT22;13760;52.588;13.406;2024-02-26T01:10:57;1.70;99.90
25963;DHT22;13760;52.588;13.406;2024-02-26T01:13:22;1.70;99.90
25963;DHT22;13760;52.588;13.406;2024-02-26T01:15:48;1.70;99.90
25963;DHT22;13760;52.588;13.406;2024-02-26T01:18:13;1.60;99.90
25963;DHT22;13760;52.588;13.406;2024-02-26T01:20:39;1.70;99.90
25963;DHT22;13760;52.588;13.406;2024-02-26T01:23:05;1.60;99.90
25963;DHT22;13760;52.588;13.406;2024-02-26T01:25:31;1.60;99.90
25963;DHT22;13760;52.588;13.406;2024-02-26T01:27:56;1.60;99.90
25963;DHT22;13760;52.588;13.406;2024-02-26T01:30:22;1.50;99.90
25963;DHT22;13760;52.588;13.406;2024-02-26T01:32:47;1.50;99.90
25963;DHT22;13760;52.588;13.406;2024-02-26T01:35:13;1.50;99.90
25963;DHT22;13760;52.588;13.406;2024-02-26T01:37:39;1.40;99.90
25963;DHT22;13760;52.588;13.406;2024-02-26T01:40:05;1.40;99.90
25963;DHT22;13760;52.588;13.406;2024-02-26T01:42:32;1.40;99.90
25963;DHT22;13760;52.588;13.406;2024-02-26T01:44:58;1.40;99.90
25963;DHT22;13760;52.588;13.406;2024-02-26T01:47:24;1.40;99.90
25963;DHT22;13760;52.588;13.406;2024-02-26T01:49:50;1.30;99.90
25963;DHT22;13760;52.588;13.406;2024-02-26T01:52:16;1.30;99.90
25963;DHT22;13760;52.588;13.406;2024-02-26T01:54:45;1.30;99.90
25963;DHT22;13760;52.588;13.406;2024-02-26T01:57:11;1.30;99.90
25963;DHT22;13760;52.588;13.406;2024-02-26T01:59:38;1.30;99.90
25963;DHT22;13760;52.588;13.406;2024-02-26T02:02:06;1.20;99.90
25963;DHT22;13760;52.588;13.406;2024-02-26T02:04:32;1.20;99.90
25963;DHT22;13760;52.588;13.406;2024-02-26T02:07:00;1.20;99.90
25963;DHT22;13760;52.588;13.406;2024-02-26T02:09:27;1.20;99.90
25963;DHT22;13760;52.588;13.406;2024-02-26T02:11:53;1.20;99.90
25963;DHT22;13760;52.588;13.406;2024-02-26T02:14:19;1.20;99.90
25963;DHT22;13760;52.588;13.406;2024-02-26T02:16:44;1.10;99.90
25963;DHT22;13760;52.588;13.406;2024-02-26T02:19:10;1.10;99.90
25963;DHT22;13760;52.588;13.406;2024-02-26T02:21:35;1.10;99.90
25963;DHT22;13760;52.588;13.406;2024-02-26T02:24:01;1.10;99.90
25963;DHT22;13760;52.588;13.406;2024-02-26T02:26:26;1.20;99.90
25963;DHT22;13760;52.588;13.406;2024-02-26T02:28:53;1.20;99.90
25963;DHT22;13760;52.588;13.406;2024-02-26T02:31:18;1.20;99.90
25963;DHT22;13760;52.588;13.406;2024-02-26T02:33:44;1.10;99.90
25963;DHT22;13760;52.588;13.406;2024-02-26T02:36:10;1.10;99.90
25963;DHT22;13760;52.588;13.406;2024-02-26T02:38:37;1.10;99.90
25963;DHT22;13760;52.588;13.406;2024-02-26T02:41:03;1.10;99.90
25963;DHT22;13760;52.588;13.406;2024-02-26T02:43:28;1.10;99.90
25963;DHT22;13760;52.588;13.406;2024-02-26T02:45:54;1.00;99.90
25963;DHT22;13760;52.588;13.406;2024-02-26T02:48:19;1.10;99.90
25963;DHT22;13760;52.588;13.406;2024-02-26T02:50:45;1.00;99.90
25963;DHT22;13760;52.588;13.406;2024-02-26T02:53:11;1.10;99.90
25963;DHT22;13760;52.588;13.406;2024-02-26T02:55:36;1.10;99.90
25963;DHT22;13760;52.588;13.406;2024-02-26T02:58:02;1.00;99.90
25963;DHT22;13760;52.588;13.406;2024-02-26T03:00:27;1.10;99.90
25963;DHT22;13760;52.588;13.406;2024-02-26T03:02:53;1.00;99.90
25963;DHT22;13760;52.588;13.406;2024-02-26T03:05:18;1.00;99.90
25963;DHT22;13760;52.588;13.406;2024-02-26T03:07:44;1.00;99.90
25963;DHT22;13760;52.588;13.406;2024-02-26T03:10:09;0.90;99.90
25963;DHT22;13760;52.588;13.406;2024-02-26T03:12:35;0.90;99.90
25963;DHT22;13760;52.588;13.406;2024-02-26T03:15:01;0.90;99.90
25963;DHT22;13760;52.588;13.406;2024-02-26T03:17:28;1.00;99.90
25963;DHT22;13760;52.588;13.406;2024-02-26T03:19:54;1.00;99.90
25963;DHT22;13760;52.588;13.406;2024-02-26T03:22:20;1.10;99.90
25963;DHT22;13760;52.588;13.406;2024-02-26T03:24:46;1.10;99.90
25963;DHT22;13760;52.588;13.406;2024-02-26T03:27:12;1.10;99.90
25963;DHT22;13760;52.588;13.406;2024-02-26T03:29:38;1.20;99.90
25963;DHT22;13760;52.588;13.406;2024-02-26T03:32:04;1.10;99.90
25963;DHT22;13760;52.588;13.406;2024-02-26T03:34:30;1.10;99.90
25963;DHT22;13760;52.588;13.406;2024-02-26T03:36:56;1.10;99.90
25963;DHT22;13760;52.588;13.406;2024-02-26T03:39:22;1.10;99.90
25963;DHT22;13760;52.588;13.406;2024-02-26T03:41:48;1.10;99.90
25963;DHT22;13760;52.588;13.406;2024-02-26T03:44:14;1.00;99.90
25963;DHT22;13760;52.588;13.406;2024-02-26T03:46:40;1.00;99.90
25963;DHT22;13760;52.588;13.406;2024-02-26T03:49:08;1.00;99.90
25963;DHT22;13760;52.588;13.406;2024-02-26T03:51:33;1.00;99.90
25963;DHT22;13760;52.588;13.406;2024-02-26T03:53:59;1.00;99.90
25963;DHT22;13760;52.588;13.406;2024-02-26T03:56:26;1.00;99.90
25963;DHT22;13760;52.588;13.406;2024-02-26T03:58:52;1.00;99.90
25963;DHT22;13760;52.588;13.406;2024-02-26T04:01:17;1.00;99.90
25963;DHT22;13760;52.588;13.406;2024-02-26T04:03:43;1.00;99.90
25963;DHT22;13760;52.588;13.406;2024-02-26T04:06:09;1.00;99.90
25963;DHT22;13760;52.588;13.406;2024-02-26T04:08:43;1.00;99.90
25963;DHT22;13760;52.588;13.406;2024-02-26T04:11:09;1.00;99.90
25963;DHT22;13760;52.588;13.406;2024-02-26T04:13:35;0.90;99.90
25963;DHT22;13760;52.588;13.406;2024-02-26T04:16:00;0.90;99.90
25963;DHT22;13760;52.588;13.406;2024-02-26T04:18:29;0.90;99.90
25963;DHT22;13760;52.588;13.406;2024-02-26T04:20:54;0.80;99.90
25963;DHT22;13760;52.588;13.406;2024-02-26T04:23:20;0.80;99.90
25963;DHT22;13760;52.588;13.406;2024-02-26T04:25:45;0.80;99.90
25963;DHT22;13760;52.588;13.406;2024-02-26T04:28:12;0.80;99.90
25963;DHT22;13760;52.588;13.406;2024-02-26T04:30:37;0.80;99.90
25963;DHT22;13760;52.588;13.406;2024-02-26T04:33:03;0.80;99.90
25963;DHT22;13760;52.588;13.406;2024-02-26T04:35:29;0.80;99.90
25963;DHT22;13760;52.588;13.406;2024-02-26T04:37:55;0.80;99.90
25963;DHT22;13760;52.588;13.406;2024-02-26T04:40:20;0.80;99.90
25963;DHT22;13760;52.588;13.406;2024-02-26T04:42:46;0.70;99.90
25963;DHT22;13760;52.588;13.406;2024-02-26T04:45:11;0.70;99.90
25963;DHT22;13760;52.588;13.406;2024-02-26T04:47:37;0.70;99.90
25963;DHT22;13760;52.588;13.406;2024-02-26T04:50:03;0.80;99.90
25963;DHT22;13760;52.588;13.406;2024-02-26T04:52:29;0.70;99.90
25963;DHT22;13760;52.588;13.406;2024-02-26T04:54:54;0.70;99.90
25963;DHT22;13760;52.588;13.406;2024-02-26T04:57:21;0.70;99.90
25963;DHT22;13760;52.588;13.406;2024-02-26T04:59:47;0.70;99.90
25963;DHT22;13760;52.588;13.406;2024-02-26T05:02:13;0.70;99.90
25963;DHT22;13760;52.588;13.406;2024-02-26T05:04:38;0.70;99.90
25963;DHT22;13760;52.588;13.406;2024-02-26T05:07:04;0.70;99.90
25963;DHT22;13760;52.588;13.406;2024-02-26T05:09:30;0.70;99.90
25963;DHT22;13760;52.588;13.406;2024-02-26T05:12:04;0.70;99.90
25963;DHT22;13760;52.588;13.406;2024-02-26T05:15:07;0.60;99.90
25963;DHT22;13760;52.588;13.406;2024-02-26T05:17:36;0.70;99.90
25963;DHT22;13760;52.588;13.406;2024-02-26T05:20:01;0.70;99.90
25963;DHT22;13760;52.588;13.406;2024-02-26T05:22:27;0.70;99.90
25963;DHT22;13760;52.588;13.406;2024-02-26T05:24:53;0.60;99.90
25963;DHT22;13760;52.588;13.406;2024-02-26T05:27:19;0.60;99.90
25963;DHT22;13760;52.588;13.406;2024-02-26T05:29:44;0.60;99.90
25963;DHT22;13760;52.588;13.406;2024-02-26T05:32:10;0.70;99.90
25963;DHT22;13760;52.588;13.406;2024-02-26T05:34:35;0.60;99.90
25963;DHT22;13760;52.588;13.406;2024-02-26T05:37:01;0.70;99.90
25963;DHT22;13760;52.588;13.406;2024-02-26T05:39:26;0.70;99.90
25963;DHT22;13760;52.588;13.406;2024-02-26T05:41:52;0.70;99.90
25963;DHT22;13760;52.588;13.406;2024-02-26T05:44:17;0.70;99.90
25963;DHT22;13760;52.588;13.406;2024-02-26T05:46:43;0.70;99.90
25963;DHT22;13760;52.588;13.406;2024-02-26T05:49:09;0.70;99.90
25963;DHT22;13760;52.588;13.406;2024-02-26T05:51:34;0.70;99.90
25963;DHT22;13760;52.588;13.406;2024-02-26T05:54:00;0.70;99.90
25963;DHT22;13760;52.588;13.406;2024-02-26T05:56:26;0.70;99.90
25963;DHT22;13760;52.588;13.406;2024-02-26T05:58:52;0.70;99.90
25963;DHT22;13760;52.588;13.406;2024-02-26T06:01:18;0.70;99.90
25963;DHT22;13760;52.588;13.406;2024-02-26T06:03:44;0.70;99.90
25963;DHT22;13760;52.588;13.406;2024-02-26T06:06:10;0.70;99.90
25963;DHT22;13760;52.588;13.406;2024-02-26T06:08:36;0.70;99.90
25963;DHT22;13760;52.588;13.406;2024-02-26T06:11:06;0.70;99.90
25963;DHT22;13760;52.588;13.406;2024-02-26T06:13:32;0.70;99.90
25963;DHT22;13760;52.588;13.406;2024-02-26T06:15:58;0.70;99.90
25963;DHT22;13760;52.588;13.406;2024-02-26T06:18:23;0.70;99.90
25963;DHT22;13760;52.588;13.406;2024-02-26T06:21:00;0.70;99.90
25963;DHT22;13760;52.588;13.406;2024-02-26T06:23:51;0.80;99.90
25963;DHT22;13760;52.588;13.406;2024-02-26T06:26:31;0.80;99.90
25963;DHT22;13760;52.588;13.406;2024-02-26T06:29:08;0.80;99.90
25963;DHT22;13760;52.588;13.406;2024-02-26T06:31:34;0.80;99.90
25963;DHT22;13760;52.588;13.406;2024-02-26T06:33:59;0.90;99.90
25963;DHT22;13760;52.588;13.406;2024-02-26T06:36:25;0.90;99.90
25963;DHT22;13760;52.588;13.406;2024-02-26T06:38:51;0.90;99.90
25963;DHT22;13760;52.588;13.406;2024-02-26T06:41:19;0.90;99.90
25963;DHT22;13760;52.588;13.406;2024-02-26T06:43:44;1.00;99.90
25963;DHT22;13760;52.588;13.406;2024-02-26T06:46:10;1.10;99.90
25963;DHT22;13760;52.588;13.406;2024-02-26T06:48:36;1.10;99.90
25963;DHT22;13760;52.588;13.406;2024-02-26T06:51:02;1.20;99.90
25963;DHT22;13760;52.588;13.406;2024-02-26T06:53:28;1.20;99.90
25963;DHT22;13760;52.588;13.406;2024-02-26T06:55:53;1.30;99.90
25963;DHT22;13760;52.588;13.406;2024-02-26T06:58:19;1.40;99.90
25963;DHT22;13760;52.588;13.406;2024-02-26T07:00:44;1.40;99.90
25963;DHT22;13760;52.588;13.406;2024-02-26T07:03:11;1.50;99.90
25963;DHT22;13760;52.588;13.406;2024-02-26T07:05:37;1.60;99.90
25963;DHT22;13760;52.588;13.406;2024-02-26T07:08:02;1.60;99.90
25963;DHT22;13760;52.588;13.406;2024-02-26T07:10:28;1.70;99.90
25963;DHT22;13760;52.588;13.406;2024-02-26T07:12:53;1.80;99.90
25963;DHT22;13760;52.588;13.406;2024-02-26T07:15:19;1.80;99.90
25963;DHT22;13760;52.588;13.406;2024-02-26T07:17:44;1.90;99.90
25963;DHT22;13760;52.588;13.406;2024-02-26T07:20:16;1.90;99.90
25963;DHT22;13760;52.588;13.406;2024-02-26T07:22:43;2.00;99.90
25963;DHT22;13760;52.588;13.406;2024-02-26T07:25:09;2.00;99.90
25963;DHT22;13760;52.588;13.406;2024-02-26T07:27:39;2.10;99.90
25963;DHT22;13760;52.588;13.406;2024-02-26T07:30:12;2.10;99.90
25963;DHT22;13760;52.588;13.406;2024-02-26T07:32:43;2.20;99.90
25963;DHT22;13760;52.588;13.406;2024-02-26T07:35:10;2.30;99.90
25963;DHT22;13760;52.588;13.406;2024-02-26T07:37:35;2.40;99.90
25963;DHT22;13760;52.588;13.406;2024-02-26T07:40:01;2.40;99.90
25963;DHT22;13760;52.588;13.406;2024-02-26T07:42:27;2.50;99.90
25963;DHT22;13760;52.588;13.406;2024-02-26T07:44:52;2.60;99.90
25963;DHT22;13760;52.588;13.406;2024-02-26T07:47:19;2.70;99.90
25963;DHT22;13760;52.588;13.406;2024-02-26T07:49:44;2.80;99.90
25963;DHT22;13760;52.588;13.406;2024-02-26T07:52:16;2.90;99.90
25963;DHT22;13760;52.588;13.406;2024-02-26T07:54:53;3.00;99.90
25963;DHT22;13760;52.588;13.406;2024-02-26T07:57:23;3.10;99.90
25963;DHT22;13760;52.588;13.406;2024-02-26T07:59:49;3.20;99.90
25963;DHT22;13760;52.588;13.406;2024-02-26T08:02:15;3.30;99.90
25963;DHT22;13760;52.588;13.406;2024-02-26T08:05:17;3.40;99.90
25963;DHT22;13760;52.588;13.406;2024-02-26T08:07:51;3.60;99.90
25963;DHT22;13760;52.588;13.406;2024-02-26T08:10:20;3.70;99.90
25963;DHT22;13760;52.588;13.406;2024-02-26T08:12:46;3.80;99.90
25963;DHT22;13760;52.588;13.406;2024-02-26T08:15:11;3.90;99.90
25963;DHT22;13760;52.588;13.406;2024-02-26T08:17:37;4.00;99.90
25963;DHT22;13760;52.588;13.406;2024-02-26T08:20:04;4.10;99.90
25963;DHT22;13760;52.588;13.406;2024-02-26T08:22:29;4.20;99.90
25963;DHT22;13760;52.588;13.406;2024-02-26T08:24:55;4.30;99.90
25963;DHT22;13760;52.588;13.406;2024-02-26T08:27:20;4.40;99.90
25963;DHT22;13760;52.588;13.406;2024-02-26T08:29:46;4.50;99.90
25963;DHT22;13760;52.588;13.406;2024-02-26T08:32:12;4.50;99.90
25963;DHT22;13760;52.588;13.406;2024-02-26T08:34:37;4.60;99.90
25963;DHT22;13760;52.588;13.406;2024-02-26T08:37:03;4.70;99.90
25963;DHT22;13760;52.588;13.406;2024-02-26T08:39:28;4.80;99.90
25963;DHT22;13760;52.588;13.406;2024-02-26T08:41:54;4.90;99.90
25963;DHT22;13760;52.588;13.406;2024-02-26T08:44:19;5.00;99.90
25963;DHT22;13760;52.588;13.406;2024-02-26T08:46:45;5.10;99.90
25963;DHT22;13760;52.588;13.406;2024-02-26T08:49:11;5.20;99.90
25963;DHT22;13760;52.588;13.406;2024-02-26T08:51:42;5.40;99.90
25963;DHT22;13760;52.588;13.406;2024-02-26T08:54:08;5.50;99.90
25963;DHT22;13760;52.588;13.406;2024-02-26T08:56:33;5.60;99.90
25963;DHT22;13760;52.588;13.406;2024-02-26T08:58:59;5.80;99.90
25963;DHT22;13760;52.588;13.406;2024-02-26T09:01:29;5.90;99.90
25963;DHT22;13760;52.588;13.406;2024-02-26T09:03:54;6.00;99.90
25963;DHT22;13760;52.588;13.406;2024-02-26T09:06:21;6.10;99.90
25963;DHT22;13760;52.588;13.406;2024-02-26T09:08:47;6.20;99.90
25963;DHT22;13760;52.588;13.406;2024-02-26T09:11:12;6.30;99.90
25963;DHT22;13760;52.588;13.406;2024-02-26T09:13:38;6.40;99.90
25963;DHT22;13760;52.588;13.406;2024-02-26T09:16:04;6.60;99.90
25963;DHT22;13760;52.588;13.406;2024-02-26T09:18:30;6.70;99.90
25963;DHT22;13760;52.588;13.406;2024-02-26T09:20:55;6.90;99.90
25963;DHT22;13760;52.588;13.406;2024-02-26T09:23:21;7.00;99.90
25963;DHT22;13760;52.588;13.406;2024-02-26T09:25:46;7.20;99.90
25963;DHT22;13760;52.588;13.406;2024-02-26T09:28:12;7.30;99.90
25963;DHT22;13760;52.588;13.406;2024-02-26T09:30:37;7.30;99.90
25963;DHT22;13760;52.588;13.406;2024-02-26T09:33:04;7.40;99.90
25963;DHT22;13760;52.588;13.406;2024-02-26T09:35:29;7.50;99.90
25963;DHT22;13760;52.588;13.406;2024-02-26T09:37:55;7.50;99.90
25963;DHT22;13760;52.588;13.406;2024-02-26T09:40:21;7.60;99.90
25963;DHT22;13760;52.588;13.406;2024-02-26T09:42:47;7.60;99.90
25963;DHT22;13760;52.588;13.406;2024-02-26T09:45:18;7.70;99.90
25963;DHT22;13760;52.588;13.406;2024-02-26T09:47:48;7.80;99.90
25963;DHT22;13760;52.588;13.406;2024-02-26T09:50:14;7.80;99.90
25963;DHT22;13760;52.588;13.406;2024-02-26T09:52:43;7.90;99.90
25963;DHT22;13760;52.588;13.406;2024-02-26T09:55:09;7.90;99.90
25963;DHT22;13760;52.588;13.406;2024-02-26T09:57:37;7.90;99.90
25963;DHT22;13760;52.588;13.406;2024-02-26T10:00:03;8.00;99.90
25963;DHT22;13760;52.588;13.406;2024-02-26T10:02:31;8.00;99.90
25963;DHT22;13760;52.588;13.406;2024-02-26T10:04:59;8.10;99.90
25963;DHT22;13760;52.588;13.406;2024-02-26T10:07:27;8.20;99.90
25963;DHT22;13760;52.588;13.406;2024-02-26T10:09:55;8.20;99.90
25963;DHT22;13760;52.588;13.406;2024-02-26T10:12:21;8.30;99.90
25963;DHT22;13760;52.588;13.406;2024-02-26T10:14:47;8.40;99.90
25963;DHT22;13760;52.588;13.406;2024-02-26T10:17:13;8.50;99.90
25963;DHT22;13760;52.588;13.406;2024-02-26T10:19:39;8.60;99.90
25963;DHT22;13760;52.588;13.406;2024-02-26T10:22:04;8.60;99.90
25963;DHT22;13760;52.588;13.406;2024-02-26T10:24:30;8.80;99.90
25963;DHT22;13760;52.588;13.406;2024-02-26T10:26:56;8.80;99.90
25963;DHT22;13760;52.588;13.406;2024-02-26T10:29:24;8.90;99.90
25963;DHT22;13760;52.588;13.406;2024-02-26T10:31:51;9.00;99.90
25963;DHT22;13760;52.588;13.406;2024-02-26T10:34:18;9.10;99.90
25963;DHT22;13760;52.588;13.406;2024-02-26T10:36:44;9.20;99.90
25963;DHT22;13760;52.588;13.406;2024-02-26T10:39:12;9.30;99.90
25963;DHT22;13760;52.588;13.406;2024-02-26T10:41:37;9.40;99.90
25963;DHT22;13760;52.588;13.406;2024-02-26T10:44:04;9.50;99.90
25963;DHT22;13760;52.588;13.406;2024-02-26T10:46:29;9.70;99.90
25963;DHT22;13760;52.588;13.406;2024-02-26T10:48:56;9.80;99.90
25963;DHT22;13760;52.588;13.406;2024-02-26T10:51:29;9.80;99.90
25963;DHT22;13760;52.588;13.406;2024-02-26T10:53:57;10.00;99.90
25963;DHT22;13760;52.588;13.406;2024-02-26T10:56:28;10.00;99.90
25963;DHT22;13760;52.588;13.406;2024-02-26T10:58:58;10.10;99.90
25963;DHT22;13760;52.588;13.406;2024-02-26T11:01:25;10.20;99.90
25963;DHT22;13760;52.588;13.406;2024-02-26T11:03:52;10.30;99.90
25963;DHT22;13760;52.588;13.406;2024-02-26T11:06:22;10.40;99.90
25963;DHT22;13760;52.588;13.406;2024-02-26T11:08:51;10.50;99.90
25963;DHT22;13760;52.588;13.406;2024-02-26T11:11:17;10.50;99.90
25963;DHT22;13760;52.588;13.406;2024-02-26T11:13:47;10.50;99.90
25963;DHT22;13760;52.588;13.406;2024-02-26T11:16:22;10.50;99.90
25963;DHT22;13760;52.588;13.406;2024-02-26T11:18:48;10.60;99.90
25963;DHT22;13760;52.588;13.406;2024-02-26T11:21:18;10.80;99.90
25963;DHT22;13760;52.588;13.406;2024-02-26T11:23:46;10.80;99.90
25963;DHT22;13760;52.588;13.406;2024-02-26T11:26:14;10.90;99.90
25963;DHT22;13760;52.588;13.406;2024-02-26T11:28:41;11.00;99.90
25963;DHT22;13760;52.588;13.406;2024-02-26T11:31:07;11.10;99.90
25963;DHT22;13760;52.588;13.406;2024-02-26T11:33:33;11.10;99.90
25963;DHT22;13760;52.588;13.406;2024-02-26T11:36:11;11.20;99.90
25963;DHT22;13760;52.588;13.406;2024-02-26T11:38:37;11.20;99.90
25963;DHT22;13760;52.588;13.406;2024-02-26T11:41:04;11.10;99.90
25963;DHT22;13760;52.588;13.406;2024-02-26T11:43:53;11.10;99.90
25963;DHT22;13760;52.588;13.406;2024-02-26T11:46:29;11.20;99.90
25963;DHT22;13760;52.588;13.406;2024-02-26T11:49:01;11.10;99.90
25963;DHT22;13760;52.588;13.406;2024-02-26T11:51:28;11.10;99.90
25963;DHT22;13760;52.588;13.406;2024-02-26T11:53:57;11.10;99.90
25963;DHT22;13760;52.588;13.406;2024-02-26T11:56:24;11.10;99.90
25963;DHT22;13760;52.588;13.406;2024-02-26T11:59:10;11.20;99.90
25963;DHT22;13760;52.588;13.406;2024-02-26T12:01:49;11.20;99.90
25963;DHT22;13760;52.588;13.406;2024-02-26T12:04:21;11.20;99.90
25963;DHT22;13760;52.588;13.406;2024-02-26T12:06:55;11.20;99.90
25963;DHT22;13760;52.588;13.406;2024-02-26T12:09:51;11.40;99.90
25963;DHT22;13760;52.588;13.406;2024-02-26T12:12:18;11.40;99.90
25963;DHT22;13760;52.588;13.406;2024-02-26T12:14:52;11.50;99.90
25963;DHT22;13760;52.588;13.406;2024-02-26T12:17:23;11.60;99.90
25963;DHT22;13760;52.588;13.406;2024-02-26T12:19:49;11.70;99.90
25963;DHT22;13760;52.588;13.406;2024-02-26T12:22:16;11.70;99.90
25963;DHT22;13760;52.588;13.406;2024-02-26T12:24:42;11.70;99.90
25963;DHT22;13760;52.588;13.406;2024-02-26T12:27:08;11.70;99.90
25963;DHT22;13760;52.588;13.406;2024-02-26T12:29:33;11.70;99.90
25963;DHT22;13760;52.588;13.406;2024-02-26T12:31:59;11.70;99.90
25963;DHT22;13760;52.588;13.406;2024-02-26T12:34:30;11.80;99.90
25963;DHT22;13760;52.588;13.406;2024-02-26T12:37:04;11.80;99.90
25963;DHT22;13760;52.588;13.406;2024-02-26T12:39:35;11.90;99.90
25963;DHT22;13760;52.588;13.406;2024-02-26T12:42:06;12.00;99.90
25963;DHT22;13760;52.588;13.406;2024-02-26T12:44:32;12.10;99.90
25963;DHT22;13760;52.588;13.406;2024-02-26T12:47:02;12.30;99.90
25963;DHT22;13760;52.588;13.406;2024-02-26T12:49:31;12.40;99.90
25963;DHT22;13760;52.588;13.406;2024-02-26T12:51:57;12.60;99.90
25963;DHT22;13760;52.588;13.406;2024-02-26T12:54:33;12.70;99.90
25963;DHT22;13760;52.588;13.406;2024-02-26T12:57:00;12.80;99.90
25963;DHT22;13760;52.588;13.406;2024-02-26T12:59:27;12.80;99.90
25963;DHT22;13760;52.588;13.406;2024-02-26T13:01:53;12.60;99.90
25963;DHT22;13760;52.588;13.406;2024-02-26T13:04:18;12.60;99.90
25963;DHT22;13760;52.588;13.406;2024-02-26T13:06:44;12.50;99.90
25963;DHT22;13760;52.588;13.406;2024-02-26T13:09:13;12.40;99.90
25963;DHT22;13760;52.588;13.406;2024-02-26T13:11:42;12.40;99.50
25963;DHT22;13760;52.588;13.406;2024-02-26T13:14:07;12.30;97.50
25963;DHT22;13760;52.588;13.406;2024-02-26T13:16:34;12.20;97.90
25963;DHT22;13760;52.588;13.406;2024-02-26T13:19:10;12.10;98.00
25963;DHT22;13760;52.588;13.406;2024-02-26T13:21:36;12.10;98.20
25963;DHT22;13760;52.588;13.406;2024-02-26T13:24:01;12.10;97.20
25963;DHT22;13760;52.588;13.406;2024-02-26T13:26:27;12.10;96.90
25963;DHT22;13760;52.588;13.406;2024-02-26T13:29:00;12.10;97.50
25963;DHT22;13760;52.588;13.406;2024-02-26T13:31:26;12.10;95.60
25963;DHT22;13760;52.588;13.406;2024-02-26T13:33:51;12.00;95.70
25963;DHT22;13760;52.588;13.406;2024-02-26T13:36:21;12.00;95.30
25963;DHT22;13760;52.588;13.406;2024-02-26T13:38:54;12.00;95.30
25963;DHT22;13760;52.588;13.406;2024-02-26T13:41:23;12.00;94.20
25963;DHT22;13760;52.588;13.406;2024-02-26T13:43:49;11.90;95.70
25963;DHT22;13760;52.588;13.406;2024-02-26T13:46:15;11.90;96.60
25963;DHT22;13760;52.588;13.406;2024-02-26T13:48:42;11.90;95.80
25963;DHT22;13760;52.588;13.406;2024-02-26T13:51:09;11.90;96.70
25963;DHT22;13760;52.588;13.406;2024-02-26T13:53:35;11.90;96.10
25963;DHT22;13760;52.588;13.406;2024-02-26T13:56:00;11.90;96.50
25963;DHT22;13760;52.588;13.406;2024-02-26T13:58:27;11.90;96.90
25963;DHT22;13760;52.588;13.406;2024-02-26T14:00:55;11.80;96.70
25963;DHT22;13760;52.588;13.406;2024-02-26T14:03:21;11.80;97.50
25963;DHT22;13760;52.588;13.406;2024-02-26T14:05:47;11.80;98.10
25963;DHT22;13760;52.588;13.406;2024-02-26T14:08:13;11.80;97.50
25963;DHT22;13760;52.588;13.406;2024-02-26T14:10:39;11.80;98.30
25963;DHT22;13760;52.588;13.406;2024-02-26T14:13:04;11.70;97.70
25963;DHT22;13760;52.588;13.406;2024-02-26T14:15:30;11.70;97.10
25963;DHT22;13760;52.588;13.406;2024-02-26T14:17:56;11.60;96.50
25963;DHT22;13760;52.588;13.406;2024-02-26T14:20:22;11.60;98.00
25963;DHT22;13760;52.588;13.406;2024-02-26T14:22:50;11.50;98.20
25963;DHT22;13760;52.588;13.406;2024-02-26T14:25:16;11.50;97.60
25963;DHT22;13760;52.588;13.406;2024-02-26T14:27:42;11.50;98.10
25963;DHT22;13760;52.588;13.406;2024-02-26T14:30:08;11.50;98.60
25963;DHT22;13760;52.588;13.406;2024-02-26T14:32:34;11.50;98.50
25963;DHT22;13760;52.588;13.406;2024-02-26T14:35:02;11.40;99.00
25963;DHT22;13760;52.588;13.406;2024-02-26T14:37:28;11.40;99.50
25963;DHT22;13760;52.588;13.406;2024-02-26T14:39:54;11.40;99.90
25963;DHT22;13760;52.588;13.406;2024-02-26T14:42:19;11.40;99.90
25963;DHT22;13760;52.588;13.406;2024-02-26T14:44:45;11.40;99.90
25963;DHT22;13760;52.588;13.406;2024-02-26T14:47:13;11.30;99.90
25963;DHT22;13760;52.588;13.406;2024-02-26T14:49:39;11.30;99.90
25963;DHT22;13760;52.588;13.406;2024-02-26T14:52:05;11.30;99.90
25963;DHT22;13760;52.588;13.406;2024-02-26T14:54:31;11.30;99.90
25963;DHT22;13760;52.588;13.406;2024-02-26T14:57:03;11.20;99.90
25963;DHT22;13760;52.588;13.406;2024-02-26T14:59:30;11.20;99.90
25963;DHT22;13760;52.588;13.406;2024-02-26T15:01:57;11.10;99.90
25963;DHT22;13760;52.588;13.406;2024-02-26T15:04:22;11.10;99.90
25963;DHT22;13760;52.588;13.406;2024-02-26T15:06:48;11.00;99.90
25963;DHT22;13760;52.588;13.406;2024-02-26T15:09:13;11.00;99.90
25963;DHT22;13760;52.588;13.406;2024-02-26T15:11:40;11.00;99.90
25963;DHT22;13760;52.588;13.406;2024-02-26T15:14:07;10.90;99.90
25963;DHT22;13760;52.588;13.406;2024-02-26T15:16:32;10.90;99.90
25963;DHT22;13760;52.588;13.406;2024-02-26T15:18:58;10.90;99.90
25963;DHT22;13760;52.588;13.406;2024-02-26T15:21:23;10.80;99.90
25963;DHT22;13760;52.588;13.406;2024-02-26T15:23:49;10.80;99.90
25963;DHT22;13760;52.588;13.406;2024-02-26T15:26:17;10.80;99.90